EYVI/VNO METAR and TAF weather

Enter ICAO airport designator
Station Type Date Time Source
EYVI METAR 2019/08/22 02:50 UTC NOAA

EYVI 220250Z 31005KT 270V330 3900 BR BKN002 12/12 Q1028 TEMPO 0600 FG


Station Type Date Time Source
EYVI Decoded METAR 2019/08/22 02:50 UTC NOAA

Station name not available
Aug 21, 2019 - 10:50 PM EDT / 2019.08.22 0250 UTC
Wind: from the NW (310 degrees) at 6 MPH (5 KT) (direction variable):0
Visibility: 2 mile(s):0
Sky conditions: mostly cloudy
Weather: mist
Temperature: 53 F (12 C)
Dew Point: 53 F (12 C)
Relative Humidity: 100%
Pressure (altimeter): 30.36 in. Hg (1028 hPa)
ob: EYVI 220250Z 31005KT 270V330 3900 BR BKN002 12/12 Q1028 TEMPO 0600 FG
cycle: 3

Station Type Date Time Source
EYVI TAF 2019/08/21 18:03 UTC NOAA

TAF EYVI 211700Z 2118/2218 30012KT 5000 BR BKN005 OVC015 PROB40
TEMPO 2118/2121 1500 DZ OVC002
BECMG 2121/2122 VRB02KT SCT005 BKN015
TEMPO 2200/2206 0500 FG VV002
BECMG 2206/2208 9000 SCT035

Example: see airport list